createdAt,value
2018-07-21T00:02:27.629Z,57.94
2018-07-21T00:04:55.453Z,58.16
2018-07-21T00:07:23.501Z,57.94
2018-07-21T00:09:51.362Z,58.42
2018-07-21T00:12:19.153Z,58.22
2018-07-21T00:14:46.924Z,58.04
2018-07-21T00:17:14.717Z,57.57
2018-07-21T00:19:42.886Z,57.04
2018-07-21T00:22:10.714Z,57.43
2018-07-21T00:24:38.501Z,56.65
2018-07-21T00:27:06.267Z,56.58
2018-07-21T00:29:34.034Z,56.33
2018-07-21T00:32:01.817Z,55.90
2018-07-21T00:34:29.601Z,55.48
2018-07-21T00:36:57.386Z,56.03
2018-07-21T00:39:25.149Z,56.39
2018-07-21T00:41:52.934Z,55.15
2018-07-21T00:44:20.717Z,55.10
2018-07-21T00:46:48.566Z,55.32
2018-07-21T00:49:16.389Z,55.25
2018-07-21T00:51:44.196Z,56.20
2018-07-21T00:54:11.975Z,57.13
2018-07-21T00:56:39.751Z,57.89
2018-07-21T00:59:08.456Z,58.63
2018-07-21T01:01:36.208Z,58.75
2018-07-21T01:04:04.067Z,58.88
2018-07-21T01:06:31.845Z,59.67
2018-07-21T01:08:59.620Z,59.32
2018-07-21T01:11:27.491Z,60.26
2018-07-21T01:13:55.263Z,60.59
2018-07-21T01:16:23.124Z,60.28
2018-07-21T01:18:50.911Z,59.91
2018-07-21T01:21:18.741Z,59.72
2018-07-21T01:23:46.534Z,61.23
2018-07-21T01:26:14.370Z,60.44
2018-07-21T01:28:42.152Z,60.36
2018-07-21T01:31:10.031Z,60.84
2018-07-21T01:33:37.786Z,60.56
2018-07-21T01:36:05.709Z,61.00
2018-07-21T01:38:33.518Z,61.03
2018-07-21T01:41:01.315Z,59.97
2018-07-21T01:43:29.071Z,60.48
2018-07-21T01:45:56.813Z,60.44
2018-07-21T01:48:24.657Z,60.71
2018-07-21T01:50:52.450Z,60.54
2018-07-21T01:53:20.222Z,59.37
2018-07-21T01:55:48.007Z,59.88
2018-07-21T01:58:15.800Z,60.37
2018-07-21T02:00:43.638Z,59.95
2018-07-21T02:03:11.412Z,60.64
2018-07-21T02:05:39.178Z,60.81
2018-07-21T02:08:06.994Z,60.36
2018-07-21T02:10:35.049Z,61.07
2018-07-21T02:13:02.861Z,59.96
2018-07-21T02:15:30.630Z,58.75
2018-07-21T02:17:58.586Z,56.58
2018-07-21T02:20:26.353Z,54.67
2018-07-21T02:22:54.179Z,52.40
2018-07-21T02:25:22.048Z,52.91
2018-07-21T02:27:49.839Z,51.56
2018-07-21T02:30:17.646Z,51.32
2018-07-21T02:32:45.457Z,51.77
2018-07-21T02:35:13.286Z,50.86
2018-07-21T02:37:41.139Z,50.60
2018-07-21T02:40:08.975Z,50.22
2018-07-21T02:42:36.753Z,49.74
2018-07-21T02:45:04.851Z,50.12
2018-07-21T02:47:32.666Z,50.35
2018-07-21T02:50:00.469Z,50.97
2018-07-21T02:52:28.311Z,50.80
2018-07-21T02:54:56.085Z,50.77
2018-07-21T02:57:23.861Z,49.90
2018-07-21T02:59:51.630Z,50.06
2018-07-21T03:02:19.473Z,50.10
2018-07-21T03:04:47.297Z,49.51
2018-07-21T03:07:15.085Z,49.77
2018-07-21T03:09:42.869Z,49.76
2018-07-21T03:12:10.654Z,48.77
2018-07-21T03:14:38.513Z,47.02
2018-07-21T03:17:06.343Z,45.33
2018-07-21T03:19:34.258Z,45.31
2018-07-21T03:22:02.116Z,44.36
2018-07-21T03:24:29.937Z,43.36
2018-07-21T03:26:57.719Z,43.60
2018-07-21T03:29:25.598Z,43.07
2018-07-21T03:31:53.934Z,41.62
2018-07-21T03:34:21.702Z,41.20
2018-07-21T03:36:49.529Z,40.84
2018-07-21T03:39:17.686Z,39.95
2018-07-21T03:41:45.495Z,38.23
2018-07-21T03:44:13.325Z,39.37
2018-07-21T03:46:41.186Z,37.56
2018-07-21T03:49:09.055Z,36.01
2018-07-21T03:51:36.841Z,36.99
2018-07-21T03:54:04.639Z,35.87
2018-07-21T03:56:32.474Z,34.52
2018-07-21T03:59:00.258Z,32.63
2018-07-21T04:01:28.098Z,31.02
2018-07-21T04:03:55.891Z,29.43
2018-07-21T04:06:23.696Z,32.69
2018-07-21T04:08:51.549Z,32.69
2018-07-21T04:11:19.414Z,30.36
2018-07-21T04:13:47.287Z,26.26
2018-07-21T04:16:15.160Z,27.14
2018-07-21T04:18:42.927Z,28.18
2018-07-21T04:21:10.686Z,28.29
2018-07-21T04:23:38.461Z,26.84
2018-07-21T04:26:06.542Z,26.50
2018-07-21T04:28:34.398Z,27.73
2018-07-21T04:31:02.171Z,29.75
2018-07-21T04:33:29.937Z,29.81
2018-07-21T04:35:57.702Z,28.62
2018-07-21T04:38:25.561Z,26.90
2018-07-21T04:40:53.369Z,25.12
2018-07-21T04:43:21.131Z,24.97
2018-07-21T04:45:48.893Z,27.72
2018-07-21T04:48:16.683Z,26.02
2018-07-21T04:50:44.481Z,24.92
2018-07-21T04:53:12.249Z,25.08
2018-07-21T04:55:40.013Z,27.37
2018-07-21T04:58:07.802Z,28.67
2018-07-21T05:00:35.606Z,29.12
2018-07-21T05:03:03.447Z,27.46
2018-07-21T05:05:31.245Z,27.34
2018-07-21T05:07:59.034Z,24.96
2018-07-21T05:10:26.819Z,29.31
2018-07-21T05:12:54.679Z,28.76
2018-07-21T05:15:22.509Z,29.31
2018-07-21T05:17:50.289Z,30.48
2018-07-21T05:20:18.118Z,30.19
2018-07-21T05:22:45.939Z,28.97
2018-07-21T05:25:13.739Z,28.55
2018-07-21T05:27:41.553Z,32.17
2018-07-21T05:30:09.402Z,37.56
2018-07-21T05:32:37.303Z,36.66
2018-07-21T05:35:05.313Z,34.33
2018-07-21T05:37:33.127Z,35.76
2018-07-21T05:40:00.926Z,30.00
2018-07-21T05:42:28.750Z,28.29
2018-07-21T05:44:56.520Z,27.08
2018-07-21T05:47:24.294Z,29.01
2018-07-21T05:49:52.101Z,28.83
2018-07-21T05:52:19.902Z,27.41
2018-07-21T05:54:47.755Z,30.95
2018-07-21T05:57:15.749Z,28.96
2018-07-21T05:59:43.529Z,34.38
2018-07-21T06:02:11.397Z,35.70
2018-07-21T06:04:39.246Z,38.01
2018-07-21T06:07:07.022Z,39.47
2018-07-21T06:09:34.786Z,31.57
2018-07-21T06:12:02.613Z,29.75
2018-07-21T06:14:30.381Z,29.78
2018-07-21T06:16:58.179Z,29.09
2018-07-21T06:19:25.984Z,29.73
2018-07-21T06:21:53.754Z,29.41
2018-07-21T06:24:21.569Z,29.10
2018-07-21T06:26:49.320Z,27.03
2018-07-21T06:29:17.114Z,26.96
2018-07-21T06:31:44.954Z,26.75
2018-07-21T06:34:12.756Z,26.93
2018-07-21T06:36:40.598Z,26.75
2018-07-21T06:39:10.188Z,25.95
2018-07-21T06:41:38.006Z,26.87
2018-07-21T06:44:05.923Z,28.52
2018-07-21T06:46:33.762Z,27.70
2018-07-21T06:49:01.611Z,28.13
2018-07-21T06:51:29.435Z,29.14
2018-07-21T06:53:57.278Z,27.53
2018-07-21T06:56:25.083Z,28.16
2018-07-21T06:58:52.909Z,26.00
2018-07-21T07:01:20.789Z,27.26
2018-07-21T07:03:48.609Z,28.69
2018-07-21T07:06:16.750Z,27.94
2018-07-21T07:08:44.535Z,25.97
2018-07-21T07:11:12.459Z,28.57
2018-07-21T07:13:40.298Z,26.72
2018-07-21T07:16:08.110Z,25.38
2018-07-21T07:18:35.897Z,26.05
2018-07-21T07:21:03.814Z,26.17
2018-07-21T07:23:31.631Z,25.20
2018-07-21T07:25:59.484Z,26.49
2018-07-21T07:28:27.282Z,27.01
2018-07-21T07:30:55.123Z,27.95
2018-07-21T07:33:22.954Z,27.23
2018-07-21T07:35:50.763Z,26.11
2018-07-21T07:38:18.623Z,29.11
2018-07-21T07:40:46.416Z,30.63
2018-07-21T07:43:14.206Z,31.97
2018-07-21T07:45:42.011Z,30.49
2018-07-21T07:48:09.793Z,30.93
2018-07-21T07:50:37.625Z,29.21
2018-07-21T07:53:05.445Z,29.44
2018-07-21T07:55:34.036Z,30.85
2018-07-21T07:58:03.354Z,30.10
2018-07-21T08:00:31.270Z,29.05
2018-07-21T08:02:59.898Z,29.05
2018-07-21T08:05:27.697Z,30.81
2018-07-21T08:07:55.494Z,33.00
2018-07-21T08:10:23.303Z,30.22
2018-07-21T08:12:51.651Z,29.43
2018-07-21T08:15:20.077Z,29.93
2018-07-21T08:17:48.335Z,29.11
2018-07-21T08:20:16.305Z,28.60
2018-07-21T08:22:44.074Z,29.33
2018-07-21T08:25:11.842Z,31.78
2018-07-21T08:27:39.691Z,29.68
2018-07-21T08:30:08.790Z,30.80
2018-07-21T08:32:36.610Z,32.39
2018-07-21T08:35:04.500Z,32.44
2018-07-21T08:37:32.541Z,31.17
2018-07-21T08:40:00.333Z,29.59
2018-07-21T08:42:28.403Z,29.05
2018-07-21T08:44:56.270Z,32.40
2018-07-21T08:47:24.165Z,30.98
2018-07-21T08:49:51.959Z,32.92
2018-07-21T08:52:19.814Z,32.11
2018-07-21T08:54:47.593Z,31.58
2018-07-21T08:57:15.688Z,32.37
2018-07-21T08:59:43.552Z,33.89
2018-07-21T09:02:11.486Z,35.26
2018-07-21T09:04:39.442Z,33.20
2018-07-21T09:07:07.245Z,34.16
2018-07-21T09:09:35.070Z,34.99
2018-07-21T09:12:02.886Z,35.08
2018-07-21T09:14:30.681Z,35.57
2018-07-21T09:16:58.570Z,34.57
2018-07-21T09:19:26.735Z,33.90
2018-07-21T09:21:54.735Z,34.40
2018-07-21T09:24:22.541Z,33.87
2018-07-21T09:26:50.313Z,32.63
2018-07-21T09:29:18.249Z,31.20
2018-07-21T09:31:46.180Z,31.54
2018-07-21T09:34:14.041Z,30.89
2018-07-21T09:36:41.844Z,31.70
2018-07-21T09:39:10.418Z,32.55
2018-07-21T09:41:38.296Z,34.07
2018-07-21T09:44:06.143Z,34.54
2018-07-21T09:46:33.956Z,34.85
2018-07-21T09:49:01.771Z,35.29
2018-07-21T09:51:29.587Z,33.92
2018-07-21T09:53:57.465Z,32.55
2018-07-21T09:56:25.287Z,33.68
2018-07-21T09:58:53.133Z,32.54
2018-07-21T10:01:20.971Z,34.00
2018-07-21T10:03:48.760Z,32.56
2018-07-21T10:06:16.600Z,32.55
2018-07-21T10:08:44.451Z,31.19
2018-07-21T10:11:12.319Z,33.83
2018-07-21T10:13:40.220Z,35.53
2018-07-21T10:16:08.036Z,34.56
2018-07-21T10:18:35.825Z,31.58
2018-07-21T10:21:03.678Z,32.41
2018-07-21T10:23:31.863Z,31.61
2018-07-21T10:26:05.250Z,32.41
2018-07-21T10:28:38.549Z,33.97
2018-07-21T10:31:06.386Z,33.95
2018-07-21T10:33:34.187Z,32.31
2018-07-21T10:36:02.069Z,30.93
2018-07-21T10:38:29.841Z,31.41
2018-07-21T10:40:57.647Z,31.72
2018-07-21T10:43:25.499Z,31.08
2018-07-21T10:45:53.326Z,32.98
2018-07-21T10:48:21.120Z,32.24
2018-07-21T10:50:49.004Z,30.42
2018-07-21T10:53:16.807Z,31.02
2018-07-21T10:55:44.641Z,29.57
2018-07-21T10:58:12.441Z,28.27
2018-07-21T11:00:40.314Z,30.10
2018-07-21T11:05:44.066Z,31.15
2018-07-21T11:08:12.022Z,30.65
2018-07-21T11:10:39.788Z,30.07
2018-07-21T11:13:07.609Z,31.16
2018-07-21T11:15:36.627Z,29.65
2018-07-21T11:18:04.439Z,29.40
2018-07-21T11:20:32.302Z,29.64
2018-07-21T11:23:00.118Z,30.31
2018-07-21T11:25:27.915Z,31.48
2018-07-21T11:27:55.739Z,33.53
2018-07-21T11:30:23.529Z,31.83
2018-07-21T11:32:51.349Z,29.92
2018-07-21T11:35:19.199Z,29.36
2018-07-21T11:37:46.989Z,28.77
2018-07-21T11:40:14.806Z,28.43
2018-07-21T11:42:42.602Z,30.00
2018-07-21T11:45:10.437Z,30.41
2018-07-21T11:47:38.235Z,30.04
2018-07-21T11:50:06.083Z,31.16
2018-07-21T11:52:33.886Z,29.89
2018-07-21T11:55:01.702Z,28.20
2018-07-21T11:57:29.477Z,27.74
2018-07-21T11:59:57.259Z,29.04
2018-07-21T12:02:25.110Z,30.16
2018-07-21T12:04:52.910Z,30.40
2018-07-21T12:07:20.769Z,30.38
2018-07-21T12:09:48.633Z,30.12
2018-07-21T12:12:16.402Z,28.64
2018-07-21T12:14:44.238Z,29.25
2018-07-21T12:17:12.047Z,26.41
2018-07-21T12:19:40.116Z,27.60
2018-07-21T12:22:07.954Z,29.09
2018-07-21T12:24:35.828Z,28.62
2018-07-21T12:27:03.918Z,28.75
2018-07-21T12:29:31.735Z,29.39
2018-07-21T12:31:59.537Z,30.16
2018-07-21T12:34:27.372Z,29.20
2018-07-21T12:36:55.188Z,28.86
2018-07-21T12:39:22.981Z,28.06
2018-07-21T12:41:50.815Z,28.67
2018-07-21T12:44:18.621Z,29.88
2018-07-21T12:46:46.458Z,28.99
2018-07-21T12:49:14.245Z,28.98
2018-07-21T12:51:42.036Z,28.48
2018-07-21T12:54:09.927Z,29.65
2018-07-21T12:56:37.721Z,30.24
2018-07-21T12:59:05.586Z,31.21
2018-07-21T13:01:33.377Z,29.83
2018-07-21T13:04:01.191Z,29.83
2018-07-21T13:06:29.066Z,30.00
2018-07-21T13:08:56.914Z,28.88
2018-07-21T13:11:24.742Z,29.48
2018-07-21T13:13:52.531Z,30.46
2018-07-21T13:16:20.346Z,31.03
2018-07-21T13:18:48.130Z,29.86
2018-07-21T13:21:15.987Z,30.30
2018-07-21T13:23:43.851Z,30.91
2018-07-21T13:26:11.690Z,30.67
2018-07-21T13:28:39.522Z,29.23
2018-07-21T13:31:07.353Z,29.35
2018-07-21T13:33:35.155Z,29.38
2018-07-21T13:36:03.391Z,30.19
2018-07-21T13:38:31.202Z,31.61
2018-07-21T13:40:59.034Z,31.65
2018-07-21T13:43:26.923Z,31.29
2018-07-21T13:45:54.802Z,30.39
2018-07-21T13:48:22.644Z,29.85
2018-07-21T13:50:50.524Z,28.90
2018-07-21T13:53:18.380Z,28.75
2018-07-21T13:55:46.209Z,29.95
2018-07-21T13:58:14.005Z,29.78
2018-07-21T14:00:41.828Z,29.91
2018-07-21T14:03:09.613Z,30.26
2018-07-21T14:05:37.454Z,29.48
2018-07-21T14:08:05.380Z,28.18
2018-07-21T14:10:33.339Z,28.96
2018-07-21T14:13:01.363Z,29.07
2018-07-21T14:15:29.206Z,28.67
2018-07-21T14:17:57.019Z,29.60
2018-07-21T14:20:25.141Z,28.66
2018-07-21T14:22:52.960Z,27.48
2018-07-21T14:25:20.767Z,29.64
2018-07-21T14:27:48.658Z,28.60
2018-07-21T14:30:16.505Z,30.13
2018-07-21T14:32:44.329Z,29.25
2018-07-21T14:35:12.273Z,28.91
2018-07-21T14:37:40.062Z,30.18
2018-07-21T14:40:07.902Z,30.59
2018-07-21T14:42:35.759Z,29.56
2018-07-21T14:45:03.663Z,29.40
2018-07-21T14:47:31.532Z,27.93
2018-07-21T14:49:59.335Z,28.80
2018-07-21T14:52:27.167Z,28.87
2018-07-21T14:54:55.030Z,29.29
2018-07-21T14:57:22.804Z,29.64
2018-07-21T14:59:50.611Z,30.27
2018-07-21T15:02:18.431Z,28.30
2018-07-21T15:04:46.284Z,26.75
2018-07-21T15:07:14.121Z,28.87
2018-07-21T15:09:41.990Z,30.39
2018-07-21T15:12:09.814Z,30.02
2018-07-21T15:14:37.643Z,30.67
2018-07-21T15:17:05.754Z,31.12
2018-07-21T15:19:33.546Z,30.31
2018-07-21T15:22:01.365Z,30.29
2018-07-21T15:24:29.167Z,30.95
2018-07-21T15:26:56.953Z,30.19
2018-07-21T15:29:24.740Z,30.02
2018-07-21T15:31:52.617Z,29.45
2018-07-21T15:34:20.425Z,30.93
2018-07-21T15:36:48.197Z,30.52
2018-07-21T15:39:15.973Z,30.18
2018-07-21T15:41:43.769Z,29.42
2018-07-21T15:44:11.584Z,29.06
2018-07-21T15:46:39.408Z,28.63
2018-07-21T15:49:07.268Z,30.64
2018-07-21T15:51:35.052Z,30.17
2018-07-21T15:54:02.909Z,30.11
2018-07-21T15:56:30.688Z,27.88
2018-07-21T15:58:58.482Z,27.48
2018-07-21T16:01:26.460Z,27.87
2018-07-21T16:03:54.498Z,27.67
2018-07-21T16:06:22.290Z,28.26
2018-07-21T16:08:50.099Z,27.93
2018-07-21T16:11:17.889Z,27.27
2018-07-21T16:13:45.797Z,28.25
2018-07-21T16:16:13.989Z,27.95
2018-07-21T16:18:41.810Z,27.52
2018-07-21T16:21:09.631Z,27.30
2018-07-21T16:23:37.507Z,28.49
2018-07-21T16:26:05.601Z,29.23
2018-07-21T16:28:33.387Z,29.66
2018-07-21T16:31:01.174Z,29.66
2018-07-21T16:33:29.059Z,30.19
2018-07-21T16:35:56.863Z,29.80
2018-07-21T16:38:24.670Z,29.75
2018-07-21T16:40:52.459Z,30.50
2018-07-21T16:43:20.231Z,30.81
2018-07-21T16:45:48.247Z,30.54
2018-07-21T16:48:16.058Z,31.13
2018-07-21T16:50:43.853Z,31.02
2018-07-21T16:53:11.644Z,31.15
2018-07-21T16:55:39.410Z,31.44
2018-07-21T16:58:07.205Z,31.19
2018-07-21T17:00:34.991Z,32.18
2018-07-21T17:03:02.809Z,32.14
2018-07-21T17:05:30.914Z,32.90
2018-07-21T17:07:58.734Z,33.51
2018-07-21T17:10:26.521Z,32.91
2018-07-21T17:12:54.343Z,33.67
2018-07-21T17:15:22.129Z,33.86
2018-07-21T17:17:50.216Z,34.05
2018-07-21T17:20:18.357Z,33.30
2018-07-21T17:22:46.165Z,34.35
2018-07-21T17:25:14.098Z,34.72
2018-07-21T17:27:41.928Z,35.07
2018-07-21T17:30:09.737Z,35.60
2018-07-21T17:32:37.620Z,34.97
2018-07-21T17:35:05.452Z,35.01
2018-07-21T17:37:33.342Z,34.16
2018-07-21T17:40:01.160Z,34.03
2018-07-21T17:42:28.952Z,34.53
2018-07-21T17:44:57.258Z,33.85
2018-07-21T17:47:25.154Z,34.46
2018-07-21T17:49:52.974Z,34.18
2018-07-21T17:52:20.848Z,34.82
2018-07-21T17:54:48.687Z,33.71
2018-07-21T17:57:16.484Z,35.10
2018-07-21T17:59:44.293Z,33.74
2018-07-21T18:02:12.194Z,34.81
2018-07-21T18:04:40.080Z,34.80
2018-07-21T18:07:07.912Z,35.51
2018-07-21T18:09:35.730Z,35.88
2018-07-21T18:12:03.614Z,36.35
2018-07-21T18:14:31.509Z,37.68
2018-07-21T18:16:59.611Z,38.33
2018-07-21T18:19:27.409Z,38.97
2018-07-21T18:21:55.244Z,39.83
2018-07-21T18:24:23.074Z,39.91
2018-07-21T18:26:50.969Z,40.69
2018-07-21T18:29:18.776Z,40.47
2018-07-21T18:31:46.665Z,39.51
2018-07-21T18:34:14.410Z,39.95
2018-07-21T18:36:42.240Z,40.20
2018-07-21T18:39:11.173Z,39.31
2018-07-21T18:41:39.207Z,40.28
2018-07-21T18:44:07.390Z,41.42
2018-07-21T18:46:35.268Z,41.37
2018-07-21T18:49:03.163Z,41.65
2018-07-21T18:51:31.048Z,42.37
2018-07-21T18:53:58.865Z,42.69
2018-07-21T18:56:26.716Z,43.92
2018-07-21T18:58:54.563Z,44.75
2018-07-21T19:01:22.370Z,44.27
2018-07-21T19:03:50.257Z,44.89
2018-07-21T19:06:18.162Z,44.71
2018-07-21T19:08:51.414Z,43.81
2018-07-21T19:11:19.280Z,44.13
2018-07-21T19:13:47.104Z,44.10
2018-07-21T19:16:20.473Z,43.92
2018-07-21T19:18:48.505Z,44.67
2018-07-21T19:21:16.594Z,44.52
2018-07-21T19:23:44.530Z,44.37
2018-07-21T19:26:17.856Z,45.39
2018-07-21T19:28:45.785Z,47.89
2018-07-21T19:31:13.660Z,47.93
2018-07-21T19:33:41.485Z,48.16
2018-07-21T19:36:09.355Z,47.56
2018-07-21T19:38:37.209Z,47.50
2018-07-21T19:41:10.643Z,46.93
2018-07-21T19:43:38.822Z,47.07
2018-07-21T19:46:06.654Z,45.52
2018-07-21T19:48:34.510Z,45.51
2018-07-21T19:51:02.471Z,44.15
2018-07-21T19:53:30.344Z,44.45
2018-07-21T19:55:58.181Z,43.91
2018-07-21T19:58:26.004Z,46.13
2018-07-21T20:00:53.820Z,46.27
2018-07-21T20:03:21.894Z,46.81
2018-07-21T20:05:49.761Z,46.97
2018-07-21T20:08:17.641Z,46.78
2018-07-21T20:10:45.421Z,45.80
2018-07-21T20:13:13.221Z,45.87
2018-07-21T20:15:41.050Z,44.51
2018-07-21T20:18:08.971Z,44.52
2018-07-21T20:20:36.768Z,44.75
2018-07-21T20:23:04.689Z,45.26
2018-07-21T20:25:32.588Z,45.54
2018-07-21T20:28:00.392Z,46.26
2018-07-21T20:30:28.223Z,46.75
2018-07-21T20:32:56.030Z,46.71
2018-07-21T20:35:23.849Z,47.70
2018-07-21T20:37:51.646Z,47.58
2018-07-21T20:40:19.459Z,47.95
2018-07-21T20:42:47.271Z,47.46
2018-07-21T20:45:15.114Z,47.60
2018-07-21T20:47:42.902Z,47.14
2018-07-21T20:50:10.740Z,47.90
2018-07-21T20:52:38.525Z,47.75
2018-07-21T20:55:06.414Z,47.20
2018-07-21T20:57:34.194Z,47.04
2018-07-21T21:00:02.066Z,47.00
2018-07-21T21:02:29.868Z,47.25
2018-07-21T21:04:57.767Z,46.71
2018-07-21T21:07:25.575Z,46.63
2018-07-21T21:09:53.350Z,46.76
2018-07-21T21:12:21.276Z,46.14
2018-07-21T21:14:49.305Z,45.42
2018-07-21T21:17:17.831Z,45.79
2018-07-21T21:19:45.614Z,46.06
2018-07-21T21:22:13.532Z,45.92
2018-07-21T21:24:41.327Z,45.96
2018-07-21T21:27:09.506Z,46.14
2018-07-21T21:29:37.368Z,46.47
2018-07-21T21:32:05.131Z,46.34
2018-07-21T21:34:32.920Z,46.48
2018-07-21T21:37:00.718Z,47.36
2018-07-21T21:39:28.498Z,47.50
2018-07-21T21:41:56.333Z,48.16
2018-07-21T21:44:24.061Z,48.41
2018-07-21T21:46:51.857Z,48.76
2018-07-21T21:49:19.625Z,48.61
2018-07-21T21:51:47.378Z,48.80
2018-07-21T21:54:15.165Z,48.50
2018-07-21T21:56:42.971Z,47.99
2018-07-21T21:59:10.776Z,48.16
2018-07-21T22:01:38.576Z,48.74
2018-07-21T22:04:06.400Z,48.93
2018-07-21T22:06:34.165Z,48.57
2018-07-21T22:09:01.989Z,48.26
2018-07-21T22:11:29.775Z,48.22
2018-07-21T22:13:57.582Z,48.72
2018-07-21T22:16:25.446Z,48.01
2018-07-21T22:18:53.277Z,48.29
2018-07-21T22:21:21.150Z,48.39
2018-07-21T22:23:48.902Z,47.74
2018-07-21T22:26:16.665Z,48.73
2018-07-21T22:28:44.462Z,48.62
2018-07-21T22:31:12.233Z,47.86
2018-07-21T22:33:40.002Z,48.67
2018-07-21T22:36:07.786Z,48.10
2018-07-21T22:38:35.541Z,47.63
2018-07-21T22:41:03.377Z,48.58
2018-07-21T22:43:36.588Z,47.85
2018-07-21T22:46:04.653Z,47.94
2018-07-21T22:48:32.408Z,48.46
2018-07-21T22:51:00.190Z,48.88
2018-07-21T22:53:27.974Z,48.79
2018-07-21T22:55:56.056Z,49.49
2018-07-21T22:58:23.930Z,49.96
2018-07-21T23:00:51.893Z,49.20
2018-07-21T23:03:19.672Z,49.67
2018-07-21T23:05:47.433Z,49.36
2018-07-21T23:08:15.254Z,49.41
2018-07-21T23:10:43.026Z,49.19
2018-07-21T23:13:10.885Z,49.24
2018-07-21T23:15:38.666Z,49.35
2018-07-21T23:18:06.421Z,49.25
2018-07-21T23:20:34.209Z,49.59
2018-07-21T23:23:01.978Z,49.87
2018-07-21T23:25:29.763Z,49.61
2018-07-21T23:27:57.588Z,49.66
2018-07-21T23:30:25.350Z,49.53
2018-07-21T23:32:53.114Z,49.90
2018-07-21T23:35:20.909Z,50.96
2018-07-21T23:37:48.715Z,50.91
2018-07-21T23:40:16.485Z,50.54
2018-07-21T23:42:44.268Z,50.58
2018-07-21T23:45:12.053Z,50.71
2018-07-21T23:47:39.852Z,51.45
2018-07-21T23:50:07.896Z,51.40
2018-07-21T23:52:35.693Z,52.54
2018-07-21T23:55:04.446Z,52.86
2018-07-21T23:57:32.233Z,53.72
